Terminal Aerodrome Forecast
Issued by NWS Charleston, WV

Current Version | Previous Version | Text Only | Print | Product List | Glossary Off
Versions: 1 2 3 4 5 6 7 8 9 10 11 12 13 14 15 16 17 18 19 20 21 22 23 24 25 26 27 28 29

000
FTUS41 KRLX 260500
TAFCRW
TAF
KCRW 260537Z 2606/2706 VRB03KT P6SM SCT070
     FM261200 18007KT P6SM BKN060
     FM261500 21012G20KT P6SM BKN060
     FM261800 23013G23KT P6SM VCTS BKN050CB
     FM262100 32011G19KT 3SM -SHRA BKN020
     FM262300 33008KT 4SM -SHRA OVC015
     FM270500 31006KT P6SM OVC015=

USA.gov is the U.S. government's official web portal to all federal, state and local government web resources and services.